Terminal Aerodrome Forecast
Issued by NWS

Home | Current Version | Previous Version | Graphics & Text | Print | Product List | Glossary On
Versions: 1 2 3 4 5 6 7 8 9 10 11 12 13 14 15 16 17 18
000
FTUS43 KABR 280736 AAA
TAFATY
TAF AMD
KATY 280736Z 2808/2906 15019G27KT 1SM TSRA OVC011CB
     FM280900 16012KT P6SM VCTS OVC015CB
     FM281200 16012KT 4SM BR OVC015
     FM281500 22013KT 4SM BR OVC007
     FM281800 27012G20KT P6SM SCT040=

USA.gov is the U.S. government's official web portal to all federal, state and local government web resources and services.